createdAt,value
2019-05-22T00:01:40.846Z,70.32
2019-05-22T00:04:25.507Z,70.22
2019-05-22T00:07:03.867Z,70.33
2019-05-22T00:09:40.279Z,70.80
2019-05-22T00:12:19.361Z,71.01
2019-05-22T00:14:54.730Z,71.01
2019-05-22T00:17:32.495Z,71.30
2019-05-22T00:20:07.276Z,71.49
2019-05-22T00:22:43.675Z,71.74
2019-05-22T00:25:21.287Z,71.91
2019-05-22T00:27:56.294Z,72.34
2019-05-22T00:30:36.442Z,72.50
2019-05-22T00:33:12.283Z,72.96
2019-05-22T00:35:47.616Z,73.20
2019-05-22T00:38:23.858Z,73.60
2019-05-22T00:40:58.331Z,73.92
2019-05-22T00:43:31.281Z,74.23
2019-05-22T00:46:08.272Z,74.23
2019-05-22T00:48:44.942Z,74.32
2019-05-22T00:51:36.669Z,74.44
2019-05-22T00:54:38.717Z,74.29
2019-05-22T00:57:45.865Z,74.65
2019-05-22T01:00:34.807Z,74.79
2019-05-22T01:03:10.283Z,74.73
2019-05-22T01:05:45.267Z,74.99
2019-05-22T01:08:21.342Z,75.38
2019-05-22T01:10:57.703Z,75.59
2019-05-22T01:13:33.294Z,75.59
2019-05-22T01:16:10.683Z,75.45
2019-05-22T01:18:47.275Z,75.23
2019-05-22T01:21:25.281Z,75.40
2019-05-22T01:24:00.627Z,75.42
2019-05-22T01:26:36.265Z,75.39
2019-05-22T01:29:11.939Z,75.44
2019-05-22T01:31:51.533Z,75.47
2019-05-22T01:34:30.276Z,75.62
2019-05-22T01:37:10.779Z,75.65
2019-05-22T01:40:10.247Z,75.48
2019-05-22T01:42:46.566Z,75.48
2019-05-22T01:45:25.289Z,75.39
2019-05-22T01:48:09.278Z,75.13
2019-05-22T01:50:49.265Z,75.32
2019-05-22T01:53:27.600Z,75.17
2019-05-22T01:56:08.763Z,75.02
2019-05-22T01:58:43.096Z,75.06
2019-05-22T02:01:24.274Z,74.51
2019-05-22T02:04:02.328Z,74.66
2019-05-22T02:06:37.550Z,74.59
2019-05-22T02:09:41.277Z,74.51
2019-05-22T02:12:36.276Z,74.42
2019-05-22T02:15:11.564Z,74.42
2019-05-22T02:17:46.280Z,74.47
2019-05-22T02:20:21.270Z,74.80
2019-05-22T02:22:55.693Z,74.89
2019-05-22T02:25:30.255Z,75.13
2019-05-22T02:28:09.500Z,75.40
2019-05-22T02:30:45.717Z,75.37
2019-05-22T02:33:19.271Z,75.38
2019-05-22T02:35:55.090Z,75.51
2019-05-22T02:38:29.675Z,75.22
2019-05-22T02:41:48.941Z,75.20
2019-05-22T02:44:25.529Z,75.09
2019-05-22T02:47:18.280Z,75.00
2019-05-22T02:49:40.280Z,74.99
2019-05-22T02:52:15.520Z,74.69
2019-05-22T02:54:51.253Z,74.71
2019-05-22T02:57:28.555Z,74.42
2019-05-22T03:00:03.371Z,74.24
2019-05-22T03:02:51.364Z,74.47
2019-05-22T03:05:25.938Z,74.47
2019-05-22T03:07:59.101Z,74.28
2019-05-22T03:10:33.307Z,74.07
2019-05-22T03:13:11.301Z,74.17
2019-05-22T03:15:45.787Z,74.17
2019-05-22T03:18:21.818Z,74.11
2019-05-22T03:20:56.775Z,74.23
2019-05-22T03:23:40.498Z,74.35
2019-05-22T03:26:15.283Z,74.32
2019-05-22T03:28:49.983Z,74.71
2019-05-22T03:31:24.720Z,74.83
2019-05-22T03:33:57.655Z,74.84
2019-05-22T03:36:31.942Z,74.78
2019-05-22T03:39:08.276Z,74.71
2019-05-22T03:41:43.273Z,74.60
2019-05-22T03:44:20.097Z,74.89
2019-05-22T03:46:59.292Z,74.91
2019-05-22T03:49:32.559Z,74.91
2019-05-22T03:52:09.342Z,75.00
2019-05-22T03:54:44.118Z,75.04
2019-05-22T03:57:18.686Z,74.76
2019-05-22T03:59:52.971Z,74.76
2019-05-22T04:02:28.757Z,74.29
2019-05-22T04:05:03.488Z,74.00
2019-05-22T04:07:39.397Z,73.77
2019-05-22T04:10:14.292Z,73.99
2019-05-22T04:12:48.787Z,74.21
2019-05-22T04:15:22.820Z,74.38
2019-05-22T04:18:02.322Z,74.73
2019-05-22T04:20:36.858Z,74.99
2019-05-22T04:23:11.275Z,75.11
2019-05-22T04:25:46.271Z,75.21
2019-05-22T04:28:20.940Z,75.27
2019-05-22T04:30:59.804Z,75.26
2019-05-22T04:33:32.945Z,75.46
2019-05-22T04:36:10.358Z,75.46
2019-05-22T04:38:44.905Z,75.57
2019-05-22T04:41:18.695Z,75.35
2019-05-22T04:43:53.929Z,75.53
2019-05-22T04:46:28.124Z,75.45
2019-05-22T04:49:03.462Z,75.59
2019-05-22T04:51:39.400Z,75.59
2019-05-22T04:54:13.990Z,75.70
2019-05-22T04:56:49.280Z,75.73
2019-05-22T04:59:24.278Z,75.61
2019-05-22T05:01:58.745Z,75.41
2019-05-22T05:04:33.283Z,75.22
2019-05-22T05:07:08.780Z,75.12
2019-05-22T05:09:45.277Z,74.64
2019-05-22T05:12:20.272Z,74.59
2019-05-22T05:14:54.728Z,74.46
2019-05-22T05:17:29.101Z,74.10
2019-05-22T05:20:03.658Z,73.82
2019-05-22T05:22:46.783Z,73.58
2019-05-22T05:25:20.687Z,73.52
2019-05-22T05:27:56.291Z,73.54
2019-05-22T05:30:32.271Z,73.68
2019-05-22T05:33:06.835Z,74.02
2019-05-22T05:35:40.350Z,74.33
2019-05-22T05:38:16.274Z,74.16
2019-05-22T05:40:51.279Z,74.16
2019-05-22T05:43:26.479Z,74.37
2019-05-22T05:46:02.701Z,74.04
2019-05-22T05:48:38.949Z,73.85
2019-05-22T05:51:42.538Z,73.67
2019-05-22T05:54:19.096Z,73.71
2019-05-22T05:56:54.278Z,74.21
2019-05-22T05:59:31.291Z,74.24
2019-05-22T06:02:07.284Z,74.07
2019-05-22T06:04:42.651Z,73.43
2019-05-22T06:07:28.284Z,73.43
2019-05-22T06:10:50.951Z,73.91
2019-05-22T06:13:25.635Z,74.03
2019-05-22T06:17:31.669Z,73.80
2019-05-22T06:20:12.279Z,73.52
2019-05-22T06:23:29.991Z,73.87
2019-05-22T06:26:05.298Z,73.68
2019-05-22T06:28:44.334Z,73.68
2019-05-22T06:31:36.939Z,73.54
2019-05-22T06:34:11.738Z,73.98
2019-05-22T06:36:45.076Z,74.04
2019-05-22T06:39:19.757Z,74.13
2019-05-22T06:41:54.338Z,74.31
2019-05-22T06:44:37.274Z,74.39
2019-05-22T06:47:18.687Z,74.81
2019-05-22T06:49:58.303Z,74.75
2019-05-22T06:52:33.471Z,74.79
2019-05-22T06:55:09.250Z,75.28
2019-05-22T06:57:43.761Z,75.56
2019-05-22T07:00:22.135Z,75.67
2019-05-22T07:02:57.313Z,75.49
2019-05-22T07:05:32.282Z,75.49
2019-05-22T07:08:07.572Z,75.66
2019-05-22T07:10:43.532Z,75.58
2019-05-22T07:13:18.329Z,75.28
2019-05-22T07:15:54.279Z,75.01
2019-05-22T07:18:32.061Z,75.08
2019-05-22T07:21:08.307Z,75.15
2019-05-22T07:23:43.272Z,75.30
2019-05-22T07:26:18.332Z,74.93
2019-05-22T07:28:53.315Z,74.68
2019-05-22T07:31:29.083Z,74.77
2019-05-22T07:34:04.243Z,74.39
2019-05-22T07:36:38.934Z,74.39
2019-05-22T07:39:13.663Z,74.35
2019-05-22T07:41:48.363Z,74.03
2019-05-22T07:44:23.278Z,74.08
2019-05-22T07:46:57.926Z,73.74
2019-05-22T07:49:32.678Z,73.58
2019-05-22T07:52:11.944Z,73.39
2019-05-22T07:54:47.128Z,73.37
2019-05-22T07:57:25.623Z,72.84
2019-05-22T08:00:00.280Z,72.86
2019-05-22T08:02:40.287Z,72.86
2019-05-22T08:05:16.341Z,72.86
2019-05-22T08:07:52.344Z,72.91
2019-05-22T08:10:29.795Z,72.85
2019-05-22T08:13:04.283Z,73.01
2019-05-22T08:15:39.269Z,73.00
2019-05-22T08:18:14.277Z,73.00
2019-05-22T08:20:48.748Z,73.08
2019-05-22T08:23:23.639Z,73.17
2019-05-22T08:26:00.309Z,73.38
2019-05-22T08:28:35.274Z,73.20
2019-05-22T08:31:13.594Z,72.99
2019-05-22T08:33:48.674Z,72.77
2019-05-22T08:36:23.666Z,72.77
2019-05-22T08:38:58.296Z,72.98
2019-05-22T08:41:39.932Z,72.90
2019-05-22T08:44:17.953Z,73.03
2019-05-22T08:46:54.108Z,73.12
2019-05-22T08:49:29.670Z,73.12
2019-05-22T08:52:04.939Z,73.17
2019-05-22T08:54:39.415Z,73.09
2019-05-22T08:57:16.315Z,73.48
2019-05-22T08:59:51.944Z,73.38
2019-05-22T09:02:26.291Z,73.11
2019-05-22T09:05:00.906Z,73.17
2019-05-22T09:07:36.290Z,73.17
2019-05-22T09:10:11.584Z,71.93
2019-05-22T09:12:46.285Z,71.89
2019-05-22T09:15:21.286Z,71.67
2019-05-22T09:17:56.271Z,71.67
2019-05-22T09:20:46.417Z,71.60
2019-05-22T09:23:08.687Z,71.41
2019-05-22T09:25:42.270Z,70.93
2019-05-22T09:28:16.631Z,70.42
2019-05-22T09:30:51.302Z,70.42
2019-05-22T09:33:26.280Z,70.16
2019-05-22T09:36:00.686Z,69.06
2019-05-22T09:38:35.281Z,69.06
2019-05-22T09:41:09.936Z,68.67
2019-05-22T09:43:44.279Z,68.70
2019-05-22T09:46:19.567Z,68.70
2019-05-22T09:48:54.278Z,68.52
2019-05-22T09:51:29.310Z,68.52
2019-05-22T09:54:04.278Z,68.39
2019-05-22T09:56:39.321Z,68.42
2019-05-22T09:59:14.279Z,68.80
2019-05-22T10:01:48.769Z,68.65
2019-05-22T10:04:23.267Z,68.72
2019-05-22T10:06:57.785Z,68.64
2019-05-22T10:09:31.574Z,68.38
2019-05-22T10:12:08.299Z,68.32
2019-05-22T10:14:43.340Z,68.28
2019-05-22T10:17:40.123Z,68.32
2019-05-22T10:20:15.443Z,68.65
2019-05-22T10:22:50.109Z,68.18
2019-05-22T10:25:25.252Z,68.54
2019-05-22T10:31:36.847Z,68.10
2019-05-22T10:34:11.641Z,68.10
2019-05-22T10:36:46.614Z,68.26
2019-05-22T10:39:24.641Z,68.26
2019-05-22T10:41:57.909Z,68.26
2019-05-22T10:44:32.666Z,68.08
2019-05-22T10:47:09.413Z,67.15
2019-05-22T10:49:44.269Z,66.93
2019-05-22T10:52:19.329Z,66.93
2019-05-22T10:54:56.107Z,66.10
2019-05-22T10:57:31.712Z,66.37
2019-05-22T11:00:07.931Z,66.32
2019-05-22T11:02:42.927Z,66.18
2019-05-22T11:05:18.277Z,66.09
2019-05-22T11:07:53.333Z,66.35
2019-05-22T11:10:28.462Z,66.24
2019-05-22T11:13:03.679Z,66.35
2019-05-22T11:15:39.641Z,65.98
2019-05-22T11:18:14.274Z,66.17
2019-05-22T11:20:48.721Z,65.35
2019-05-22T11:23:23.358Z,65.56
2019-05-22T11:25:58.276Z,65.50
2019-05-22T11:28:33.571Z,64.84
2019-05-22T11:31:08.877Z,65.08
2019-05-22T11:33:43.714Z,64.45
2019-05-22T11:36:19.285Z,64.45
2019-05-22T11:38:53.761Z,64.50
2019-05-22T11:41:27.999Z,64.91
2019-05-22T11:44:03.286Z,64.65
2019-05-22T11:46:38.319Z,64.28
2019-05-22T11:49:13.318Z,63.66
2019-05-22T11:51:48.283Z,63.86
2019-05-22T11:54:23.766Z,62.56
2019-05-22T11:56:57.952Z,62.56
2019-05-22T11:59:32.891Z,62.59
2019-05-22T12:02:08.342Z,63.00
2019-05-22T12:04:48.007Z,62.84
2019-05-22T12:07:20.357Z,62.84
2019-05-22T12:09:55.276Z,62.68
2019-05-22T12:12:30.060Z,61.99
2019-05-22T12:15:06.363Z,62.23
2019-05-22T12:17:42.133Z,62.37
2019-05-22T12:20:17.690Z,61.97
2019-05-22T12:22:52.268Z,61.50
2019-05-22T12:25:28.275Z,61.50
2019-05-22T12:28:03.910Z,61.62
2019-05-22T12:30:39.187Z,62.00
2019-05-22T12:33:14.599Z,61.57
2019-05-22T12:35:51.115Z,61.59
2019-05-22T12:38:27.585Z,60.40
2019-05-22T12:41:01.950Z,60.40
2019-05-22T12:43:37.183Z,60.21
2019-05-22T12:46:13.597Z,60.21
2019-05-22T12:48:48.735Z,60.30
2019-05-22T12:51:23.657Z,59.89
2019-05-22T12:53:58.661Z,59.56
2019-05-22T12:56:33.947Z,59.20
2019-05-22T12:59:09.937Z,58.88
2019-05-22T13:01:46.268Z,59.18
2019-05-22T13:04:20.763Z,59.43
2019-05-22T13:06:57.246Z,59.43
2019-05-22T13:09:32.933Z,59.31
2019-05-22T13:12:09.290Z,59.31
2019-05-22T13:14:45.413Z,59.34
2019-05-22T13:17:22.074Z,59.30
2019-05-22T13:19:56.782Z,59.38
2019-05-22T13:22:30.391Z,59.38
2019-05-22T13:25:06.854Z,59.39
2019-05-22T13:27:41.929Z,59.50
2019-05-22T13:30:18.635Z,59.50
2019-05-22T13:35:38.691Z,59.00
2019-05-22T13:38:14.680Z,59.64
2019-05-22T13:40:49.953Z,59.75
2019-05-22T13:43:25.740Z,59.45
2019-05-22T13:45:59.845Z,59.45
2019-05-22T13:48:34.319Z,60.18
2019-05-22T13:51:11.273Z,60.18
2019-05-22T13:53:47.606Z,60.11
2019-05-22T13:56:25.562Z,60.38
2019-05-22T13:59:00.272Z,60.66
2019-05-22T14:01:35.305Z,60.89
2019-05-22T14:04:10.120Z,61.31
2019-05-22T14:06:46.291Z,61.21
2019-05-22T14:09:42.338Z,61.21
2019-05-22T14:12:17.158Z,61.39
2019-05-22T14:14:51.699Z,61.66
2019-05-22T14:17:26.352Z,61.66
2019-05-22T14:21:51.297Z,61.06
2019-05-22T14:24:20.740Z,60.59
2019-05-22T14:26:55.321Z,60.99
2019-05-22T14:29:30.270Z,60.64
2019-05-22T14:32:05.695Z,60.82
2019-05-22T14:34:40.402Z,60.42
2019-05-22T14:37:15.654Z,59.84
2019-05-22T14:39:50.788Z,59.84
2019-05-22T14:42:25.186Z,59.74
2019-05-22T14:45:00.287Z,59.74
2019-05-22T14:47:37.578Z,59.33
2019-05-22T14:50:13.650Z,59.63
2019-05-22T14:52:48.783Z,59.49
2019-05-22T14:55:22.280Z,59.36
2019-05-22T14:57:58.357Z,60.04
2019-05-22T15:00:34.090Z,60.04
2019-05-22T15:03:08.917Z,59.97
2019-05-22T15:05:43.827Z,60.22
2019-05-22T15:08:17.103Z,60.57
2019-05-22T15:10:51.717Z,60.47
2019-05-22T15:13:25.693Z,60.59
2019-05-22T15:16:00.342Z,60.80
2019-05-22T15:18:35.265Z,61.39
2019-05-22T15:21:11.737Z,61.73
2019-05-22T15:23:46.277Z,62.34
2019-05-22T15:26:20.941Z,62.49
2019-05-22T15:28:55.648Z,62.49
2019-05-22T15:31:30.538Z,62.28
2019-05-22T15:34:06.330Z,62.11
2019-05-22T15:36:41.278Z,62.29
2019-05-22T15:39:20.769Z,62.29
2019-05-22T15:41:54.553Z,62.51
2019-05-22T15:44:30.583Z,62.59
2019-05-22T15:47:06.288Z,63.12
2019-05-22T15:49:45.677Z,63.12
2019-05-22T15:52:20.497Z,63.01
2019-05-22T15:54:55.273Z,63.34
2019-05-22T15:57:29.728Z,63.58
2019-05-22T16:00:08.346Z,63.58
2019-05-22T16:02:46.552Z,64.12
2019-05-22T16:05:23.398Z,64.39
2019-05-22T16:07:58.470Z,64.60
2019-05-22T16:10:32.946Z,64.55
2019-05-22T16:13:08.531Z,64.50
2019-05-22T16:15:44.274Z,64.77
2019-05-22T16:18:22.496Z,65.13
2019-05-22T16:20:59.318Z,64.82
2019-05-22T16:23:36.165Z,64.90
2019-05-22T16:26:12.032Z,64.90
2019-05-22T16:28:49.944Z,64.69
2019-05-22T16:31:25.285Z,64.50
2019-05-22T16:34:00.279Z,64.96
2019-05-22T16:36:35.625Z,64.74
2019-05-22T16:39:12.947Z,64.67
2019-05-22T16:41:47.790Z,64.97
2019-05-22T16:44:22.102Z,64.78
2019-05-22T16:47:02.805Z,65.02
2019-05-22T16:49:37.282Z,65.02
2019-05-22T16:52:13.550Z,65.11
2019-05-22T16:54:49.325Z,64.97
2019-05-22T16:57:24.300Z,65.16
2019-05-22T17:00:00.158Z,64.96
2019-05-22T17:02:38.273Z,64.68
2019-05-22T17:05:14.313Z,64.51
2019-05-22T17:07:48.784Z,64.96
2019-05-22T17:10:22.669Z,65.38
2019-05-22T17:12:57.946Z,65.38
2019-05-22T17:15:33.121Z,65.26
2019-05-22T17:18:10.311Z,65.10
2019-05-22T17:20:45.286Z,65.07
2019-05-22T17:23:19.767Z,65.29
2019-05-22T17:25:53.906Z,65.16
2019-05-22T17:28:28.967Z,65.24
2019-05-22T17:31:04.455Z,65.31
2019-05-22T17:33:39.669Z,65.31
2019-05-22T17:36:12.864Z,65.20
2019-05-22T17:38:46.380Z,65.09
2019-05-22T17:41:21.300Z,65.48
2019-05-22T17:43:56.944Z,65.29
2019-05-22T17:46:32.250Z,65.49
2019-05-22T17:49:07.425Z,65.13
2019-05-22T17:51:42.281Z,65.10
2019-05-22T17:54:18.728Z,65.10
2019-05-22T17:56:53.720Z,65.46
2019-05-22T17:59:28.428Z,65.22
2019-05-22T18:02:04.878Z,65.22
2019-05-22T18:04:39.696Z,65.66
2019-05-22T18:07:14.528Z,65.46
2019-05-22T18:09:49.106Z,65.46
2019-05-22T18:12:25.175Z,65.25
2019-05-22T18:15:00.381Z,65.25
2019-05-22T18:17:36.301Z,65.22
2019-05-22T18:20:12.783Z,65.15
2019-05-22T18:22:45.859Z,64.93
2019-05-22T18:25:20.681Z,64.93
2019-05-22T18:27:55.966Z,64.85
2019-05-22T18:30:31.288Z,64.81
2019-05-22T18:33:06.561Z,64.77
2019-05-22T18:35:41.398Z,64.77
2019-05-22T18:38:16.329Z,64.36
2019-05-22T18:40:50.793Z,64.59
2019-05-22T18:43:23.872Z,64.59
2019-05-22T18:45:58.290Z,64.49
2019-05-22T18:48:33.333Z,64.44
2019-05-22T18:51:09.302Z,64.30
2019-05-22T18:53:44.299Z,64.50
2019-05-22T18:56:19.107Z,64.44
2019-05-22T18:58:54.283Z,64.44
2019-05-22T19:01:28.964Z,64.44
2019-05-22T19:04:03.953Z,64.45
2019-05-22T19:06:38.504Z,64.45
2019-05-22T19:09:16.286Z,64.61
2019-05-22T19:11:51.015Z,64.54
2019-05-22T19:14:26.000Z,64.03
2019-05-22T19:17:00.762Z,64.17
2019-05-22T19:19:36.325Z,64.17
2019-05-22T19:22:11.302Z,64.25
2019-05-22T19:24:46.317Z,64.12
2019-05-22T19:27:21.105Z,64.05
2019-05-22T19:29:55.747Z,64.28
2019-05-22T19:32:29.960Z,64.04
2019-05-22T19:35:05.790Z,64.52
2019-05-22T19:37:41.164Z,64.29
2019-05-22T19:40:16.320Z,64.29
2019-05-22T19:42:50.903Z,64.22
2019-05-22T19:45:25.699Z,64.13
2019-05-22T19:47:59.085Z,63.84
2019-05-22T19:50:33.338Z,63.69
2019-05-22T19:53:18.769Z,63.27
2019-05-22T19:55:45.868Z,63.41
2019-05-22T19:58:21.945Z,63.68
2019-05-22T20:00:55.334Z,63.55
2019-05-22T20:03:30.512Z,63.45
2019-05-22T20:06:05.779Z,63.09
2019-05-22T20:08:40.670Z,63.09
2019-05-22T20:11:14.956Z,63.27
2019-05-22T20:13:49.635Z,63.24
2019-05-22T20:16:23.045Z,63.24
2019-05-22T20:18:57.331Z,63.22
2019-05-22T20:21:32.404Z,63.43
2019-05-22T20:24:07.570Z,63.31
2019-05-22T20:26:42.399Z,63.13
2019-05-22T20:29:18.307Z,62.83
2019-05-22T20:31:53.280Z,62.68
2019-05-22T20:34:27.930Z,62.86
2019-05-22T20:37:02.700Z,62.58
2019-05-22T20:39:37.534Z,62.55
2019-05-22T20:42:12.292Z,62.49
2019-05-22T20:44:47.318Z,62.40
2019-05-22T20:47:25.642Z,62.25
2019-05-22T20:50:00.317Z,62.13
2019-05-22T20:52:36.668Z,61.94
2019-05-22T20:55:12.715Z,61.81
2019-05-22T20:57:46.282Z,61.87
2019-05-22T21:00:22.289Z,61.56
2019-05-22T21:03:04.345Z,61.56
2019-05-22T21:05:40.449Z,61.44
2019-05-22T21:08:18.373Z,61.44
2019-05-22T21:10:54.570Z,61.16
2019-05-22T21:13:28.954Z,61.02
2019-05-22T21:16:03.950Z,60.39
2019-05-22T21:18:42.470Z,60.39
2019-05-22T21:21:18.680Z,60.75
2019-05-22T21:24:08.958Z,60.75
2019-05-22T21:26:29.778Z,60.46
2019-05-22T21:29:04.792Z,60.31
2019-05-22T21:31:38.283Z,60.31
2019-05-22T21:34:13.283Z,60.28
2019-05-22T21:36:48.276Z,60.28
2019-05-22T21:39:23.887Z,60.25
2019-05-22T21:41:58.290Z,60.16
2019-05-22T21:44:32.964Z,60.09
2019-05-22T21:47:07.701Z,60.11
2019-05-22T21:49:43.287Z,60.11
2019-05-22T21:52:17.857Z,60.05
2019-05-22T21:54:50.867Z,60.25
2019-05-22T21:57:25.559Z,60.17
2019-05-22T22:00:00.317Z,60.15
2019-05-22T22:02:39.581Z,59.92
2019-05-22T22:05:14.582Z,59.93
2019-05-22T22:07:49.539Z,59.90
2019-05-22T22:10:24.731Z,59.92
2019-05-22T22:12:59.284Z,59.90
2019-05-22T22:15:41.574Z,60.00
2019-05-22T22:18:18.319Z,59.95
2019-05-22T22:20:53.286Z,60.28
2019-05-22T22:23:28.312Z,60.43
2019-05-22T22:26:03.604Z,60.47
2019-05-22T22:28:40.592Z,60.68
2019-05-22T22:31:18.490Z,60.63
2019-05-22T22:34:01.537Z,60.49
2019-05-22T22:36:36.670Z,60.66
2019-05-22T22:39:15.273Z,60.85
2019-05-22T22:41:53.917Z,61.08
2019-05-22T22:44:28.773Z,61.35
2019-05-22T22:47:11.717Z,61.20
2019-05-22T22:49:47.281Z,61.45
2019-05-22T22:52:22.787Z,61.45
2019-05-22T22:54:56.588Z,61.79
2019-05-22T22:57:31.380Z,61.42
2019-05-22T23:00:08.513Z,61.47
2019-05-22T23:02:46.432Z,61.58
2019-05-22T23:05:21.279Z,61.55
2019-05-22T23:07:57.284Z,61.52
2019-05-22T23:10:33.089Z,61.29
2019-05-22T23:13:08.701Z,61.20
2019-05-22T23:15:44.990Z,61.20
2019-05-22T23:19:07.276Z,61.17
2019-05-22T23:21:40.348Z,61.09
2019-05-22T23:24:13.316Z,60.47
2019-05-22T23:26:47.877Z,60.58
2019-05-22T23:29:22.712Z,60.58
2019-05-22T23:31:59.337Z,60.58
2019-05-22T23:34:34.286Z,60.29
2019-05-22T23:37:11.267Z,60.14
2019-05-22T23:39:47.950Z,60.15
2019-05-22T23:44:31.947Z,60.42
2019-05-22T23:47:07.873Z,60.05
2019-05-22T23:49:41.656Z,60.25
2019-05-22T23:52:18.393Z,60.16
2019-05-22T23:54:54.302Z,60.06
2019-05-22T23:57:29.564Z,59.98
